Observations for LONDON CITY AIRPORT, United Kingdom (EGLC)

EGLC 201650Z AUTO 26011KT 220V300 9999 SCT038 BKN045 25/15 Q1018
EGLC 201620Z AUTO 25012KT 210V280 9999 BKN046 26/15 Q1018   
EGLC 201550Z AUTO 24012KT 210V280 9999 SCT038 BKN045 25/15 Q1018
EGLC 201520Z AUTO 25012KT 210V280 9999 BKN036 25/15 Q1018   
EGLC 201450Z AUTO 23011G22KT 200V270 9999 SCT033 BKN039 25/15 Q1019 
EGLC 201420Z AUTO 25011KT 200V280 9999 BKN032 25/15 Q1019   
EGLC 201350Z AUTO 24014KT 210V280 9999 BKN030 24/15 Q1019   
EGLC 201320Z AUTO 24011KT 9999 BKN028 23/15 Q1019   
EGLC 201250Z AUTO 23013KT 9999 BKN026 23/15 Q1019   
EGLC 201220Z AUTO 24011KT 200V270 9999 BKN023 22/15 Q1020   
EGLC 201150Z AUTO 24010KT 9999 BKN022 22/15 Q1020   
EGLC 201120Z AUTO 24011KT 190V280 9999 BKN020 21/15 Q1020   
EGLC 201050Z AUTO 25012KT 220V290 9999 BKN018 21/14 Q1020   
EGLC 201020Z AUTO 24011KT 220V280 9999 BKN016 20/15 Q1020   
EGLC 200950Z AUTO 25013KT 9999 BKN014 20/14 Q1020   
EGLC 200920Z AUTO 22011KT 190V270 9999 OVC014 19/14 Q1021   
EGLC 200850Z AUTO 24010KT 200V280 9999 OVC013 18/14 Q1021   
EGLC 200820Z AUTO 23012KT 200V270 9999 OVC011 18/14 Q1021   
EGLC 200750Z AUTO 23012KT 200V270 9999 OVC009 17/14 Q1021   
EGLC 200720Z AUTO 24011KT 210V270 9999 OVC011 18/14 Q1021   
EGLC 200650Z AUTO 23010KT 9999 OVC009 18/15 Q1021   
EGLC 200620Z AUTO 23011KT 9999 BKN007 OVC012 17/15 Q1021
EGLC 200550Z AUTO 23010KT 9999 OVC006 17/15 Q1021   
EGLC 200520Z AUTO 24010KT 9999 OVC006 17/15 Q1021   
EGLC 200450Z AUTO 22009KT 9999 OVC005 16/15 Q1021   
EGLC 200420Z AUTO 21008KT 9999 OVC005 16/15 Q1021   
EGLC 200350Z AUTO 21007KT 180V240 9999 BKN006 OVC013 16/15 Q1021
EGLC 200320Z AUTO 22007KT 9999 BKN009 OVC013 16/15 Q1021
EGLC 200250Z AUTO 23006KT 190V250 9999 BKN010 16/15 Q1021   
EGLC 200220Z AUTO 22006KT 9999 NCD 17/15 Q1021  
EGLC 200150Z AUTO 23005KT 9999 NCD 17/15 Q1021  
EGLC 200120Z AUTO 22005KT 190V250 9999 NCD 17/15 Q1021  
EGLC 200050Z AUTO 22005KT 9999 NCD 18/15 Q1021  
EGLC 200020Z AUTO 23006KT 9999 NCD 18/15 Q1022  
EGLC 192350Z AUTO 23008KT 9999 NCD 18/15 Q1022  
EGLC 192320Z AUTO 23007KT 9999 NCD 19/15 Q1022  
EGLC 192250Z AUTO 23006KT 9999 NCD 19/15 Q1022  
EGLC 192220Z AUTO 23009KT 9999 FEW033 19/15 Q1022   
EGLC 192150Z AUTO 23006KT 190V250 9999 NCD 20/16 Q1022  
EGLC 192120Z AUTO 23008KT 9999 NCD 20/16 Q1022  
EGLC 192050Z AUTO 23012KT 9999 NCD 21/16 Q1022  
EGLC 192020Z AUTO 23010KT 9999 NCD 22/16 Q1022  
EGLC 191950Z AUTO 23010KT 9999 FEW027 22/16 Q1022   
EGLC 191920Z AUTO 24011KT 190V260 9999 SCT028 23/16 Q1022   
EGLC 191850Z AUTO 24011KT 200V260 9999 FEW032 SCT047 23/16 Q1022
EGLC 191820Z AUTO 23012KT 170V260 9999 BKN031 BKN041 24/16 Q1022
EGLC 191750Z AUTO 24013KT 9999 SCT034 SCT042 24/16 Q1022
EGLC 191720Z AUTO 22012KT 9999 SCT034 BKN044 25/16 Q1022
EGLC 191650Z AUTO 25012KT 220V280 9999 SCT035 SCT045 25/16 Q1022
EGLC 191620Z AUTO 24010KT 200V270 9999 SCT034 SCT041 BKN048 25/16 Q1022